Time,TemperatureF,DewpointF,PressureIn,WindDirection,WindDirectionDegrees,WindSpeedMPH,WindSpeedGustMPH,Humidity,HourlyPrecipIn,Conditions,Clouds,dailyrainin,SoftwareType,DateUTC
2013-02-14 00:01:00,33.5,32.0,30.00,SW,219,0.0,1.0,95,0.00,,,0.11,weatherlink.com 1.10,2013-02-14 06:01:00,
2013-02-14 00:17:00,33.0,32.0,30.00,SSW,210,0.0,1.0,95,0.00,,,0.00,weatherlink.com 1.10,2013-02-14 06:17:00,
2013-02-14 00:33:00,33.3,32.0,30.00,SSW,196,0.0,1.0,95,0.00,,,0.00,weatherlink.com 1.10,2013-02-14 06:33:00,
2013-02-14 00:51:00,33.3,32.0,30.00,SW,221,0.0,1.0,95,0.00,,,0.00,weatherlink.com 1.10,2013-02-14 06:51:00,
2013-02-14 01:07:00,33.3,32.0,30.00,SSW,210,0.0,1.0,95,0.00,,,0.00,weatherlink.com 1.10,2013-02-14 07:07:00,
2013-02-14 01:24:00,32.9,32.0,29.99,SSW,210,0.0,0.0,95,0.00,,,0.00,weatherlink.com 1.10,2013-02-14 07:24:00,
2013-02-14 01:41:00,31.9,31.0,29.99,SSW,210,0.0,0.0,95,0.00,,,0.00,weatherlink.com 1.10,2013-02-14 07:41:00,
2013-02-14 01:57:00,31.6,30.0,29.99,SSW,210,0.0,1.0,95,0.00,,,0.00,weatherlink.com 1.10,2013-02-14 07:57:00,
2013-02-14 02:13:00,31.4,30.0,30.00,SSW,210,0.0,0.0,96,0.00,,,0.00,weatherlink.com 1.10,2013-02-14 08:13:00,
2013-02-14 02:29:00,33.3,32.0,29.99,WSW,246,0.0,1.0,96,0.00,,,0.00,weatherlink.com 1.10,2013-02-14 08:29:00,
2013-02-14 02:46:00,34.2,33.0,29.98,WSW,240,1.0,2.0,96,0.00,,,0.00,weatherlink.com 1.10,2013-02-14 08:46:00,
2013-02-14 03:02:00,34.2,33.0,29.98,SSW,200,0.0,2.0,96,0.01,,,0.01,weatherlink.com 1.10,2013-02-14 09:02:00,
2013-02-14 03:18:00,33.7,32.0,29.98,WSW,239,0.0,1.0,95,0.01,,,0.01,weatherlink.com 1.10,2013-02-14 09:18:00,
2013-02-14 03:35:00,33.2,32.0,29.98,WSW,240,0.0,1.0,95,0.01,,,0.01,weatherlink.com 1.10,2013-02-14 09:35:00,
2013-02-14 03:52:00,33.0,32.0,29.98,WSW,240,0.0,1.0,96,0.00,,,0.01,weatherlink.com 1.10,2013-02-14 09:52:00,
2013-02-14 04:08:00,32.5,31.0,29.98,SSW,198,0.0,1.0,96,0.00,,,0.01,weatherlink.com 1.10,2013-02-14 10:08:00,
2013-02-14 04:24:00,33.6,33.0,29.98,SSW,207,0.0,2.0,96,0.00,,,0.01,weatherlink.com 1.10,2013-02-14 10:24:00,
2013-02-14 04:41:00,33.7,33.0,29.98,SW,225,0.0,2.0,96,0.00,,,0.01,weatherlink.com 1.10,2013-02-14 10:41:00,
2013-02-14 04:57:00,32.5,31.0,29.98,SSW,202,0.0,0.0,96,0.00,,,0.01,weatherlink.com 1.10,2013-02-14 10:57:00,
2013-02-14 05:13:00,31.6,31.0,29.98,SSW,202,0.0,0.0,96,0.00,,,0.01,weatherlink.com 1.10,2013-02-14 11:13:00,
2013-02-14 05:29:00,30.8,30.0,29.98,SSW,202,0.0,0.0,96,0.00,,,0.01,weatherlink.com 1.10,2013-02-14 11:29:00,
2013-02-14 05:46:00,31.1,30.0,29.97,SSW,202,0.0,1.0,96,0.00,,,0.01,weatherlink.com 1.10,2013-02-14 11:46:00,
2013-02-14 06:02:00,31.2,30.0,29.97,SSW,194,0.0,1.0,96,0.00,,,0.01,weatherlink.com 1.10,2013-02-14 12:02:00,
2013-02-14 06:18:00,32.8,32.0,29.97,SW,236,1.0,2.0,96,0.00,,,0.01,weatherlink.com 1.10,2013-02-14 12:18:00,
2013-02-14 06:34:00,33.3,32.0,29.98,SW,222,1.0,1.0,96,0.00,,,0.01,weatherlink.com 1.10,2013-02-14 12:34:00,
2013-02-14 06:50:00,33.9,33.0,29.98,SW,222,1.0,2.0,96,0.00,,,0.01,weatherlink.com 1.10,2013-02-14 12:50:00,
2013-02-14 07:06:00,34.2,33.0,29.98,SW,215,1.0,2.0,96,0.00,,,0.01,weatherlink.com 1.10,2013-02-14 13:06:00,
2013-02-14 07:23:00,35.0,34.0,29.99,SW,218,0.0,4.0,95,0.00,,,0.01,weatherlink.com 1.10,2013-02-14 13:23:00,
2013-02-14 07:39:00,36.1,35.0,29.99,SW,228,5.0,7.0,94,0.00,,,0.01,weatherlink.com 1.10,2013-02-14 13:39:00,
2013-02-14 07:56:00,37.0,35.0,30.00,WSW,240,3.0,5.0,92,0.00,,,0.01,weatherlink.com 1.10,2013-02-14 13:56:00,
2013-02-14 08:12:00,38.1,36.0,30.00,WSW,248,2.0,6.0,91,0.00,,,0.01,weatherlink.com 1.10,2013-02-14 14:12:00,
2013-02-14 08:29:00,39.3,37.0,30.00,WSW,254,3.0,6.0,90,0.00,,,0.01,weatherlink.com 1.10,2013-02-14 14:29:00,
2013-02-14 08:46:00,40.7,37.0,30.00,WSW,245,3.0,8.0,88,0.00,,,0.01,weatherlink.com 1.10,2013-02-14 14:46:00,
2013-02-14 09:03:00,42.4,39.0,30.00,WSW,248,4.0,7.0,86,0.00,,,0.01,weatherlink.com 1.10,2013-02-14 15:03:00,
2013-02-14 09:19:00,43.9,39.0,30.01,West,259,4.0,7.0,83,0.00,,,0.01,weatherlink.com 1.10,2013-02-14 15:19:00,
2013-02-14 09:36:00,45.1,39.0,30.01,WSW,240,5.0,8.0,79,0.00,,,0.01,weatherlink.com 1.10,2013-02-14 15:36:00,
2013-02-14 09:52:00,46.0,39.0,30.01,SW,225,2.0,8.0,76,0.00,,,0.01,weatherlink.com 1.10,2013-02-14 15:52:00,
2013-02-14 10:08:00,47.5,40.0,30.00,WNW,284,2.0,8.0,75,0.00,,,0.01,weatherlink.com 1.10,2013-02-14 16:08:00,
2013-02-14 10:24:00,48.5,39.0,30.00,WSW,257,4.0,6.0,70,0.00,,,0.01,weatherlink.com 1.10,2013-02-14 16:24:00,
2013-02-14 10:41:00,49.6,39.0,29.99,WNW,294,5.0,9.0,66,0.00,,,0.01,weatherlink.com 1.10,2013-02-14 16:41:00,
2013-02-14 10:57:00,50.7,39.0,29.99,WSW,254,5.0,7.0,65,0.00,,,0.01,weatherlink.com 1.10,2013-02-14 16:57:00,
2013-02-14 11:14:00,51.6,39.0,29.98,West,266,1.0,6.0,63,0.00,,,0.01,weatherlink.com 1.10,2013-02-14 17:14:00,
2013-02-14 11:30:00,52.4,39.0,29.98,West,263,4.0,13.0,60,0.00,,,0.01,weatherlink.com 1.10,2013-02-14 17:30:00,
2013-02-14 11:46:00,52.2,39.0,29.98,SW,226,4.0,8.0,60,0.00,,,0.01,weatherlink.com 1.10,2013-02-14 17:46:00,
2013-02-14 12:04:00,53.5,40.0,29.98,WSW,245,12.0,12.0,60,0.00,,,0.01,weatherlink.com 1.10,2013-02-14 18:04:00,
2013-02-14 12:20:00,54.6,40.0,29.97,SW,227,8.0,8.0,58,0.00,,,0.01,weatherlink.com 1.10,2013-02-14 18:20:00,
2013-02-14 12:38:00,55.3,40.0,29.96,WNW,286,4.0,8.0,57,0.00,,,0.01,weatherlink.com 1.10,2013-02-14 18:38:00,
2013-02-14 12:54:00,55.2,40.0,29.97,WNW,295,3.0,9.0,56,0.00,,,0.01,weatherlink.com 1.10,2013-02-14 18:54:00,
2013-02-14 13:10:00,56.5,40.0,29.96,WSW,248,4.0,8.0,54,0.00,,,0.01,weatherlink.com 1.10,2013-02-14 19:10:00,
2013-02-14 13:26:00,56.4,38.0,29.96,WSW,237,7.0,9.0,51,0.00,,,0.01,weatherlink.com 1.10,2013-02-14 19:26:00,
2013-02-14 13:42:00,56.8,39.0,29.96,WSW,242,6.0,10.0,51,0.00,,,0.01,weatherlink.com 1.10,2013-02-14 19:42:00,
2013-02-14 13:58:00,57.2,39.0,29.96,WSW,256,1.0,6.0,51,0.00,,,0.01,weatherlink.com 1.10,2013-02-14 19:58:00,
2013-02-14 14:14:00,57.1,38.0,29.95,West,273,3.0,8.0,49,0.00,,,0.01,weatherlink.com 1.10,2013-02-14 20:14:00,
2013-02-14 14:31:00,58.3,39.0,29.95,WNW,302,3.0,8.0,48,0.00,,,0.01,weatherlink.com 1.10,2013-02-14 20:31:00,
2013-02-14 14:47:00,57.6,37.0,29.96,West,260,4.0,9.0,46,0.00,,,0.01,weatherlink.com 1.10,2013-02-14 20:47:00,
2013-02-14 15:03:00,58.5,38.0,29.96,WSW,252,3.0,6.0,46,0.00,,,0.01,weatherlink.com 1.10,2013-02-14 21:03:00,
2013-02-14 15:19:00,58.2,37.0,29.96,West,263,2.0,8.0,45,0.00,,,0.01,weatherlink.com 1.10,2013-02-14 21:19:00,
2013-02-14 15:36:00,58.4,38.0,29.97,NW,311,2.0,8.0,46,0.00,,,0.01,weatherlink.com 1.10,2013-02-14 21:36:00,
2013-02-14 15:53:00,58.0,38.0,29.97,West,277,4.0,6.0,47,0.00,,,0.01,weatherlink.com 1.10,2013-02-14 21:53:00,
2013-02-14 16:09:00,58.6,37.0,29.97,West,277,3.0,4.0,45,0.00,,,0.01,weatherlink.com 1.10,2013-02-14 22:09:00,
2013-02-14 16:25:00,58.4,37.0,29.97,WSW,256,1.0,5.0,45,0.00,,,0.01,weatherlink.com 1.10,2013-02-14 22:25:00,
2013-02-14 16:41:00,57.9,38.0,29.97,WSW,254,2.0,4.0,48,0.00,,,0.01,weatherlink.com 1.10,2013-02-14 22:41:00,
2013-02-14 16:57:00,57.7,38.0,29.98,West,277,1.0,3.0,47,0.00,,,0.01,weatherlink.com 1.10,2013-02-14 22:57:00,
2013-02-14 17:13:00,56.6,38.0,29.98,West,265,1.0,2.0,49,0.00,,,0.01,weatherlink.com 1.10,2013-02-14 23:13:00,
2013-02-14 17:29:00,54.9,38.0,29.98,WSW,248,1.0,1.0,52,0.00,,,0.01,weatherlink.com 1.10,2013-02-14 23:29:00,
2013-02-14 17:45:00,53.6,37.0,29.99,West,261,1.0,1.0,54,0.00,,,0.01,weatherlink.com 1.10,2013-02-14 23:45:00,
2013-02-14 18:02:00,52.1,37.0,29.99,West,261,0.0,1.0,57,0.00,,,0.01,weatherlink.com 1.10,2013-02-15 00:02:00,
2013-02-14 18:19:00,49.8,38.0,30.00,West,261,0.0,0.0,63,0.00,,,0.01,weatherlink.com 1.10,2013-02-15 00:19:00,
2013-02-14 18:35:00,47.2,38.0,30.00,West,261,0.0,0.0,69,0.00,,,0.01,weatherlink.com 1.10,2013-02-15 00:35:00,
2013-02-14 18:51:00,46.0,37.0,30.00,West,261,0.0,0.0,71,0.00,,,0.01,weatherlink.com 1.10,2013-02-15 00:51:00,
2013-02-14 19:07:00,44.2,37.0,30.00,West,261,0.0,0.0,76,0.00,,,0.01,weatherlink.com 1.10,2013-02-15 01:07:00,
2013-02-14 19:23:00,42.8,37.0,30.01,West,261,0.0,0.0,80,0.00,,,0.01,weatherlink.com 1.10,2013-02-15 01:23:00,
2013-02-14 19:39:00,42.2,36.0,30.01,West,261,0.0,0.0,80,0.00,,,0.01,weatherlink.com 1.10,2013-02-15 01:39:00,
2013-02-14 19:55:00,42.5,37.0,30.01,West,261,0.0,0.0,80,0.00,,,0.01,weatherlink.com 1.10,2013-02-15 01:55:00,
2013-02-14 20:12:00,42.2,36.0,30.01,West,261,0.0,0.0,79,0.00,,,0.01,weatherlink.com 1.10,2013-02-15 02:12:00,
2013-02-14 20:29:00,42.1,36.0,30.01,West,261,0.0,0.0,80,0.00,,,0.01,weatherlink.com 1.10,2013-02-15 02:29:00,
2013-02-14 20:46:00,41.1,36.0,30.01,West,261,0.0,0.0,81,0.00,,,0.01,weatherlink.com 1.10,2013-02-15 02:46:00,
2013-02-14 21:02:00,40.6,36.0,30.01,West,263,0.0,0.0,84,0.00,,,0.01,weatherlink.com 1.10,2013-02-15 03:02:00,
2013-02-14 21:18:00,40.3,36.0,30.02,West,261,0.0,0.0,84,0.00,,,0.01,weatherlink.com 1.10,2013-02-15 03:18:00,
2013-02-14 21:34:00,39.4,36.0,30.02,West,261,0.0,0.0,86,0.00,,,0.01,weatherlink.com 1.10,2013-02-15 03:34:00,
2013-02-14 21:50:00,38.7,35.0,30.02,West,261,0.0,0.0,87,0.00,,,0.01,weatherlink.com 1.10,2013-02-15 03:50:00,
2013-02-14 22:06:00,40.1,36.0,30.02,West,261,0.0,0.0,86,0.00,,,0.01,weatherlink.com 1.10,2013-02-15 04:06:00,
2013-02-14 22:22:00,40.6,36.0,30.02,West,261,0.0,0.0,85,0.00,,,0.01,weatherlink.com 1.10,2013-02-15 04:22:00,
2013-02-14 22:38:00,40.5,36.0,30.02,West,261,0.0,0.0,85,0.00,,,0.01,weatherlink.com 1.10,2013-02-15 04:38:00,
2013-02-14 22:55:00,40.2,36.0,30.02,West,261,0.0,0.0,86,0.00,,,0.01,weatherlink.com 1.10,2013-02-15 04:55:00,
2013-02-14 23:11:00,39.8,37.0,30.02,West,261,0.0,0.0,88,0.00,,,0.01,weatherlink.com 1.10,2013-02-15 05:11:00,
2013-02-14 23:27:00,39.5,36.0,30.02,West,261,0.0,0.0,87,0.00,,,0.01,weatherlink.com 1.10,2013-02-15 05:27:00,
2013-02-14 23:43:00,38.8,36.0,30.02,West,261,0.0,0.0,88,0.00,,,0.01,weatherlink.com 1.10,2013-02-15 05:43:00,
2013-02-14 23:59:00,39.2,36.0,30.02,NNW,341,0.0,0.0,87,0.00,,,0.01,weatherlink.com 1.10,2013-02-15 05:59:00,